createdAt,value
2017-01-18T00:00:27.652Z,40.49
2017-01-18T00:01:27.681Z,40.68
2017-01-18T00:02:27.705Z,40.58
2017-01-18T00:03:27.730Z,40.39
2017-01-18T00:04:27.755Z,40.58
2017-01-18T00:05:27.384Z,40.68
2017-01-18T00:06:27.808Z,40.78
2017-01-18T00:07:27.829Z,40.01
2017-01-18T00:08:27.859Z,39.81
2017-01-18T00:09:27.491Z,40.11
2017-01-18T00:10:27.516Z,40.2
2017-01-18T00:11:27.540Z,39.72
2017-01-18T00:12:27.567Z,40.01
2017-01-18T00:13:27.991Z,40.11
2017-01-18T00:14:27.619Z,40.08
2017-01-18T00:15:28.052Z,39.91
2017-01-18T00:16:27.673Z,39.91
2017-01-18T00:17:28.098Z,39.61
2017-01-18T00:18:28.114Z,39.7
2017-01-18T00:19:27.746Z,39.51
2017-01-18T00:20:27.775Z,39.31
2017-01-18T00:21:27.804Z,39.79
2017-01-18T00:22:27.825Z,39.51
2017-01-18T00:23:28.246Z,39.61
2017-01-18T00:24:27.879Z,39.51
2017-01-18T00:25:28.300Z,39.7
2017-01-18T00:26:28.324Z,39.61
2017-01-18T00:27:28.349Z,39.99
2017-01-18T00:28:28.380Z,39.99
2017-01-18T00:29:28.002Z,39.79
2017-01-18T00:30:28.031Z,39.89
2017-01-18T00:31:28.060Z,39.89
2017-01-18T00:32:28.088Z,39.79
2017-01-18T00:33:28.506Z,39.7
2017-01-18T00:34:28.532Z,39.89
2017-01-18T00:35:28.555Z,39.61
2017-01-18T00:36:28.188Z,39.7
2017-01-18T00:37:28.608Z,39.7
2017-01-18T00:38:28.238Z,39.7
2017-01-18T00:39:28.658Z,39.89
2017-01-18T00:40:28.690Z,39.61
2017-01-18T00:41:28.312Z,39.61
2017-01-18T00:42:28.740Z,39.89
2017-01-18T00:43:28.365Z,39.89
2017-01-18T00:44:28.390Z,40.18
2017-01-18T00:45:28.807Z,39.99
2017-01-18T00:46:28.440Z,40.08
2017-01-18T00:47:28.472Z,39.89
2017-01-18T00:48:28.889Z,40.08
2017-01-18T00:49:28.913Z,39.89
2017-01-18T00:50:28.542Z,39.89
2017-01-18T00:51:28.567Z,39.99
2017-01-18T00:52:28.992Z,39.89
2017-01-18T00:53:29.017Z,39.99
2017-01-18T00:54:29.041Z,40.18
2017-01-18T00:55:29.070Z,39.99
2017-01-18T00:56:28.698Z,39.89
2017-01-18T00:57:28.719Z,39.89
2017-01-18T00:58:29.148Z,39.89
2017-01-18T00:59:28.773Z,40.08
2017-01-18T01:00:28.802Z,40.08
2017-01-18T01:01:28.827Z,40.37
2017-01-18T01:02:29.248Z,40.28
2017-01-18T01:03:29.273Z,39.89
2017-01-18T01:04:29.301Z,40.06
2017-01-18T01:05:29.325Z,39.87
2017-01-18T01:06:28.950Z,40.16
2017-01-18T01:07:28.979Z,40.06
2017-01-18T01:08:29.000Z,39.87
2017-01-18T01:09:29.420Z,40.06
2017-01-18T01:10:29.057Z,40.25
2017-01-18T01:11:29.482Z,40.28
2017-01-18T01:12:29.102Z,40.06
2017-01-18T01:13:29.127Z,40.16
2017-01-18T01:14:29.552Z,40.06
2017-01-18T01:15:29.586Z,40.06
2017-01-18T01:16:29.213Z,40.25
2017-01-18T01:17:29.630Z,40.25
2017-01-18T01:18:29.659Z,40.25
2017-01-18T01:19:29.675Z,40.25
2017-01-18T01:20:29.704Z,40.06
2017-01-18T01:21:29.345Z,39.97
2017-01-18T01:22:29.758Z,40.06
2017-01-18T01:23:29.386Z,39.87
2017-01-18T01:24:29.411Z,40.25
2017-01-18T01:25:29.431Z,39.87
2017-01-18T01:26:29.464Z,39.87
2017-01-18T01:27:29.489Z,39.87
2017-01-18T01:28:29.515Z,39.97
2017-01-18T01:29:29.930Z,40.06
2017-01-18T01:30:29.960Z,40.16
2017-01-18T01:31:29.982Z,39.87
2017-01-18T01:32:29.616Z,40.06
2017-01-18T01:33:29.637Z,40.06
2017-01-18T01:34:30.058Z,40.06
2017-01-18T01:35:29.691Z,40.06
2017-01-18T01:36:30.112Z,40.06
2017-01-18T01:37:30.141Z,40.25
2017-01-18T01:38:30.162Z,39.87
2017-01-18T01:39:30.190Z,40.16
2017-01-18T01:40:29.819Z,40.25
2017-01-18T01:41:30.233Z,40.25
2017-01-18T01:42:29.872Z,40.06
2017-01-18T01:43:29.893Z,40.16
2017-01-18T01:44:29.921Z,40.25
2017-01-18T01:45:29.946Z,40.16
2017-01-18T01:46:30.367Z,39.97
2017-01-18T01:47:30.389Z,39.97
2017-01-18T01:48:30.016Z,39.97
2017-01-18T01:49:30.049Z,39.97
2017-01-18T01:50:30.465Z,40.06
2017-01-18T01:51:30.094Z,39.97
2017-01-18T01:52:30.122Z,40.06
2017-01-18T01:53:30.144Z,39.97
2017-01-18T01:54:30.172Z,39.97
2017-01-18T01:55:30.198Z,40.16
2017-01-18T01:56:30.618Z,40.06
2017-01-18T01:57:30.650Z,39.87
2017-01-18T01:58:30.271Z,39.97
2017-01-18T01:59:30.300Z,39.87
2017-01-18T02:00:30.325Z,39.97
2017-01-18T02:01:30.746Z,40.06
2017-01-18T02:02:30.770Z,40.06
2017-01-18T02:03:30.803Z,40.06
2017-01-18T02:04:30.827Z,40.25
2017-01-18T02:05:30.449Z,40.06
2017-01-18T02:06:30.477Z,39.97
2017-01-18T02:07:30.901Z,39.97
2017-01-18T02:08:30.922Z,40.35
2017-01-18T02:09:30.547Z,40.06
2017-01-18T02:10:30.972Z,39.78
2017-01-18T02:11:30.604Z,39.97
2017-01-18T02:12:31.025Z,39.97
2017-01-18T02:13:31.045Z,39.87
2017-01-18T02:14:30.679Z,39.87
2017-01-18T02:15:31.099Z,39.78
2017-01-18T02:16:30.720Z,39.78
2017-01-18T02:17:30.756Z,39.78
2017-01-18T02:18:30.781Z,40.06
2017-01-18T02:19:31.198Z,40.16
2017-01-18T02:20:30.822Z,39.97
2017-01-18T02:21:30.856Z,40.16
2017-01-18T02:22:31.272Z,40.06
2017-01-18T02:23:31.301Z,40.06
2017-01-18T02:24:31.333Z,39.66
2017-01-18T02:25:31.354Z,39.68
2017-01-18T02:26:30.978Z,39.68
2017-01-18T02:27:31.007Z,39.95
2017-01-18T02:28:31.028Z,40.05
2017-01-18T02:29:31.481Z,39.95
2017-01-18T02:30:31.086Z,39.58
2017-01-18T02:31:31.506Z,40.06
2017-01-18T02:32:31.131Z,40.05
2017-01-18T02:33:31.159Z,39.68
2017-01-18T02:34:31.586Z,39.85
2017-01-18T02:35:31.204Z,39.56
2017-01-18T02:36:31.237Z,39.68
2017-01-18T02:37:31.258Z,39.28
2017-01-18T02:38:31.683Z,39.56
2017-01-18T02:39:31.708Z,39.47
2017-01-18T02:40:31.336Z,39.39
2017-01-18T02:41:31.365Z,39.68
2017-01-18T02:42:31.387Z,39.66
2017-01-18T02:43:31.803Z,39.47
2017-01-18T02:44:31.436Z,39.66
2017-01-18T02:45:31.464Z,40.05
2017-01-18T02:46:31.489Z,39.56
2017-01-18T02:47:31.909Z,39.78
2017-01-18T02:48:31.534Z,39.47
2017-01-18T02:49:31.558Z,39.56
2017-01-18T02:50:31.983Z,39.56
2017-01-18T02:51:31.611Z,39.66
2017-01-18T02:52:32.033Z,39.66
2017-01-18T02:53:31.665Z,39.66
2017-01-18T02:54:32.087Z,39.56
2017-01-18T02:55:31.710Z,39.47
2017-01-18T02:56:31.739Z,39.66
2017-01-18T02:57:31.764Z,39.66
2017-01-18T02:58:31.788Z,39.56
2017-01-18T02:59:31.810Z,39.76
2017-01-18T03:00:31.835Z,39.66
2017-01-18T03:01:32.259Z,39.28
2017-01-18T03:02:32.291Z,39.56
2017-01-18T03:03:31.918Z,39.76
2017-01-18T03:04:31.947Z,39.56
2017-01-18T03:05:31.966Z,39.47
2017-01-18T03:06:32.382Z,39.95
2017-01-18T03:07:32.411Z,39.56
2017-01-18T03:08:32.440Z,39.37
2017-01-18T03:09:32.465Z,39.47
2017-01-18T03:10:32.495Z,39.66
2017-01-18T03:11:32.522Z,39.47
2017-01-18T03:12:32.539Z,39.56
2017-01-18T03:13:32.167Z,39.66
2017-01-18T03:14:32.188Z,39.47
2017-01-18T03:15:32.622Z,39.47
2017-01-18T03:16:32.241Z,39.56
2017-01-18T03:17:32.666Z,39.47
2017-01-18T03:18:32.291Z,39.66
2017-01-18T03:19:32.319Z,39.66
2017-01-18T03:20:32.740Z,39.47
2017-01-18T03:21:32.769Z,39.47
2017-01-18T03:22:32.790Z,39.56
2017-01-18T03:23:32.414Z,39.56
2017-01-18T03:24:32.443Z,39.56
2017-01-18T03:25:32.868Z,39.47
2017-01-18T03:26:32.488Z,39.28
2017-01-18T03:27:32.919Z,39.66
2017-01-18T03:28:32.933Z,39.47
2017-01-18T03:29:32.989Z,39.28
2017-01-18T03:30:32.592Z,39.66
2017-01-18T03:31:32.627Z,39.66
2017-01-18T03:32:32.644Z,39.66
2017-01-18T03:33:32.669Z,39.66
2017-01-18T03:34:33.098Z,39.66
2017-01-18T03:35:33.115Z,39.66
2017-01-18T03:36:32.739Z,39.47
2017-01-18T03:37:33.160Z,39.56
2017-01-18T03:38:32.796Z,39.66
2017-01-18T03:39:32.825Z,39.56
2017-01-18T03:40:32.842Z,39.56
2017-01-18T03:41:33.267Z,39.85
2017-01-18T03:42:32.891Z,39.56
2017-01-18T03:43:32.924Z,39.66
2017-01-18T03:44:32.936Z,39.47
2017-01-18T03:45:32.969Z,39.56
2017-01-18T03:46:32.994Z,39.76
2017-01-18T03:47:33.410Z,39.76
2017-01-18T03:48:33.043Z,39.47
2017-01-18T03:49:33.468Z,39.56
2017-01-18T03:50:33.097Z,39.56
2017-01-18T03:51:33.509Z,39.37
2017-01-18T03:52:33.146Z,39.66
2017-01-18T03:53:33.568Z,39.56
2017-01-18T03:54:33.200Z,39.56
2017-01-18T03:55:33.616Z,39.56
2017-01-18T03:56:33.241Z,39.76
2017-01-18T03:57:33.270Z,39.56
2017-01-18T03:58:33.686Z,39.56
2017-01-18T03:59:33.715Z,39.66
2017-01-18T04:00:33.743Z,39.66
2017-01-18T04:01:33.760Z,39.56
2017-01-18T04:02:33.397Z,39.47
2017-01-18T04:03:33.422Z,39.66
2017-01-18T04:04:33.446Z,39.66
2017-01-18T04:05:33.475Z,39.85
2017-01-18T04:06:33.892Z,39.76
2017-01-18T04:07:33.948Z,39.76
2017-01-18T04:08:33.941Z,39.85
2017-01-18T04:09:33.574Z,39.85
2017-01-18T04:10:33.599Z,39.47
2017-01-18T04:11:34.019Z,39.56
2017-01-18T04:12:33.644Z,39.66
2017-01-18T04:13:34.069Z,39.76
2017-01-18T04:14:33.697Z,39.56
2017-01-18T04:15:33.718Z,39.66
2017-01-18T04:16:34.143Z,39.56
2017-01-18T04:17:34.167Z,39.56
2017-01-18T04:18:33.794Z,39.47
2017-01-18T04:19:33.820Z,39.47
2017-01-18T04:20:33.841Z,39.64
2017-01-18T04:21:33.897Z,39.95
2017-01-18T04:22:34.293Z,39.66
2017-01-18T04:23:33.918Z,39.85
2017-01-18T04:24:33.939Z,39.45
2017-01-18T04:25:34.368Z,39.47
2017-01-18T04:26:34.388Z,39.64
2017-01-18T04:27:34.025Z,39.85
2017-01-18T04:28:34.441Z,39.73
2017-01-18T04:29:34.465Z,39.83
2017-01-18T04:30:34.490Z,39.73
2017-01-18T04:31:34.119Z,39.76
2017-01-18T04:32:34.171Z,39.73
2017-01-18T04:33:34.564Z,39.76
2017-01-18T04:34:34.189Z,39.95
2017-01-18T04:35:34.613Z,39.06
2017-01-18T04:36:34.630Z,39.83
2017-01-18T04:37:34.265Z,39.93
2017-01-18T04:38:34.295Z,39.93
2017-01-18T04:39:34.316Z,39.83
2017-01-18T04:40:34.740Z,39.95
2017-01-18T04:41:34.370Z,39.93
2017-01-18T04:42:34.393Z,39.73
2017-01-18T04:43:34.817Z,39.64
2017-01-18T04:44:34.442Z,39.64
2017-01-18T04:45:34.464Z,39.73
2017-01-18T04:46:34.492Z,39.85
2017-01-18T04:47:34.517Z,39.73
2017-01-18T04:48:34.541Z,39.83
2017-01-18T04:49:34.963Z,39.93
2017-01-18T04:50:34.586Z,39.64
2017-01-18T04:51:34.620Z,39.93
2017-01-18T04:52:35.041Z,39.64
2017-01-18T04:53:35.085Z,39.64
2017-01-18T04:54:35.085Z,39.64
2017-01-18T04:55:34.718Z,39.93
2017-01-18T04:56:34.743Z,40.02
2017-01-18T04:57:35.164Z,40.02
2017-01-18T04:58:35.188Z,39.93
2017-01-18T04:59:35.213Z,39.64
2017-01-18T05:00:35.238Z,39.73
2017-01-18T05:01:34.867Z,39.93
2017-01-18T05:02:34.886Z,39.83
2017-01-18T05:03:35.310Z,39.45
2017-01-18T05:04:35.332Z,39.64
2017-01-18T05:05:35.356Z,39.83
2017-01-18T05:06:34.989Z,39.93
2017-01-18T05:07:35.403Z,39.93
2017-01-18T05:08:35.439Z,39.45
2017-01-18T05:09:35.067Z,38.96
2017-01-18T05:10:35.485Z,39.35
2017-01-18T05:11:35.117Z,39.26
2017-01-18T05:12:35.538Z,39.73
2017-01-18T05:13:35.166Z,39.93
2017-01-18T05:14:35.587Z,40.02
2017-01-18T05:15:35.216Z,39.45
2017-01-18T05:16:35.633Z,39.26
2017-01-18T05:17:35.269Z,39.35
2017-01-18T05:18:35.289Z,39.35
2017-01-18T05:19:35.711Z,39.35
2017-01-18T05:20:35.339Z,39.16
2017-01-18T05:21:35.760Z,39.06
2017-01-18T05:22:35.387Z,39.26
2017-01-18T05:23:35.413Z,40.02
2017-01-18T05:24:35.830Z,39.93
2017-01-18T05:25:35.459Z,40.12
2017-01-18T05:26:35.487Z,39.64
2017-01-18T05:27:35.517Z,39.35
2017-01-18T05:28:35.541Z,39.16
2017-01-18T05:29:35.562Z,38.96
2017-01-18T05:30:35.987Z,39.35
2017-01-18T05:31:35.615Z,39.35
2017-01-18T05:32:36.036Z,38.96
2017-01-18T05:33:35.668Z,39.26
2017-01-18T05:34:35.686Z,39.28
2017-01-18T05:35:35.715Z,39.18
2017-01-18T05:36:36.135Z,39.08
2017-01-18T05:37:36.160Z,38.89
2017-01-18T05:38:36.184Z,39.28
2017-01-18T05:39:35.889Z,39.18
2017-01-18T05:40:36.230Z,39.18
2017-01-18T05:41:35.870Z,39.18
2017-01-18T05:42:36.290Z,39.37
2017-01-18T05:43:36.316Z,39.18
2017-01-18T05:44:35.941Z,39.37
2017-01-18T05:45:36.358Z,39.08
2017-01-18T05:46:35.986Z,38.79
2017-01-18T05:47:36.010Z,38.79
2017-01-18T05:48:36.040Z,38.89
2017-01-18T05:49:36.460Z,38.6
2017-01-18T05:50:36.485Z,38.6
2017-01-18T05:51:36.510Z,38.89
2017-01-18T05:52:36.139Z,38.91
2017-01-18T05:53:36.560Z,38.79
2017-01-18T05:54:36.184Z,38.79
2017-01-18T05:55:36.613Z,38.41
2017-01-18T05:56:36.638Z,38.43
2017-01-18T05:57:36.262Z,38.43
2017-01-18T05:58:36.287Z,38.62
2017-01-18T05:59:36.316Z,38.43
2017-01-18T06:00:36.341Z,38.91
2017-01-18T06:01:36.762Z,38.81
2017-01-18T06:02:36.782Z,38.62
2017-01-18T06:03:36.415Z,39.2
2017-01-18T06:04:36.440Z,38.72
2017-01-18T06:05:36.464Z,38.43
2017-01-18T06:06:36.493Z,38.34
2017-01-18T06:07:36.518Z,38.24
2017-01-18T06:08:36.939Z,38.53
2017-01-18T06:09:36.964Z,38.72
2017-01-18T06:10:36.992Z,38.81
2017-01-18T06:11:37.013Z,38.62
2017-01-18T06:12:36.637Z,38.72
2017-01-18T06:13:37.065Z,38.72
2017-01-18T06:14:36.691Z,38.53
2017-01-18T06:15:37.115Z,38.24
2017-01-18T06:16:37.144Z,37.95
2017-01-18T06:17:36.770Z,38.35
2017-01-18T06:18:37.187Z,38.34
2017-01-18T06:19:36.815Z,38.24
2017-01-18T06:20:36.856Z,38.16
2017-01-18T06:21:37.264Z,38.26
2017-01-18T06:22:37.293Z,37.97
2017-01-18T06:23:37.318Z,38.07
2017-01-18T06:24:36.947Z,38.07
2017-01-18T06:25:37.367Z,38.26
2017-01-18T06:26:36.996Z,38.26
2017-01-18T06:27:37.421Z,37.77
2017-01-18T06:28:37.046Z,37.77
2017-01-18T06:29:37.467Z,37.87
2017-01-18T06:30:37.495Z,37.87
2017-01-18T06:31:37.120Z,37.68
2017-01-18T06:32:37.149Z,37.97
2017-01-18T06:33:37.565Z,37.87
2017-01-18T06:34:37.595Z,37.77
2017-01-18T06:35:37.227Z,37.97
2017-01-18T06:36:37.252Z,38.07
2017-01-18T06:37:37.669Z,37.3
2017-01-18T06:38:37.303Z,37.68
2017-01-18T06:39:37.726Z,37.59
2017-01-18T06:40:37.351Z,37.77
2017-01-18T06:41:37.776Z,37.77
2017-01-18T06:42:37.400Z,37.77
2017-01-18T06:43:37.850Z,37.97
2017-01-18T06:44:37.847Z,37.77
2017-01-18T06:45:37.479Z,37.87
2017-01-18T06:46:37.504Z,37.87
2017-01-18T06:47:37.925Z,37.87
2017-01-18T06:48:37.946Z,37.39
2017-01-18T06:49:37.975Z,37.87
2017-01-18T06:50:37.607Z,37.87
2017-01-18T06:51:38.028Z,37.77
2017-01-18T06:52:37.656Z,37.49
2017-01-18T06:53:38.077Z,37.77
2017-01-18T06:54:37.703Z,37.49
2017-01-18T06:55:38.135Z,37.49
2017-01-18T06:56:38.152Z,37.87
2017-01-18T06:57:38.179Z,37.87
2017-01-18T06:58:38.201Z,37.87
2017-01-18T06:59:37.834Z,37.77
2017-01-18T07:00:38.255Z,37.87
2017-01-18T07:01:38.284Z,37.87
2017-01-18T07:02:37.912Z,37.97
2017-01-18T07:03:37.938Z,37.49
2017-01-18T07:04:37.960Z,37.87
2017-01-18T07:05:38.387Z,37.77
2017-01-18T07:06:38.016Z,37.97
2017-01-18T07:07:38.432Z,37.49
2017-01-18T07:08:38.061Z,37.68
2017-01-18T07:09:38.090Z,37.77
2017-01-18T07:10:38.110Z,37.68
2017-01-18T07:11:38.531Z,37.77
2017-01-18T07:12:38.164Z,37.59
2017-01-18T07:13:38.193Z,37.59
2017-01-18T07:14:38.214Z,37.3
2017-01-18T07:15:38.638Z,37.87
2017-01-18T07:16:38.660Z,37.59
2017-01-18T07:17:38.687Z,37.77
2017-01-18T07:18:38.320Z,37.97
2017-01-18T07:19:38.345Z,37.97
2017-01-18T07:20:38.371Z,38.16
2017-01-18T07:21:38.396Z,37.97
2017-01-18T07:22:38.416Z,37.97
2017-01-18T07:23:38.448Z,37.97
2017-01-18T07:24:38.473Z,38.45
2017-01-18T07:25:38.890Z,38.26
2017-01-18T07:26:38.518Z,38.35
2017-01-18T07:27:38.547Z,38.35
2017-01-18T07:28:38.973Z,38.16
2017-01-18T07:29:38.593Z,38.35
2017-01-18T07:30:38.625Z,37.87
2017-01-18T07:31:38.646Z,38.35
2017-01-18T07:32:38.674Z,38.16
2017-01-18T07:33:39.096Z,38.07
2017-01-18T07:34:39.122Z,38.26
2017-01-18T07:35:38.754Z,38.26
2017-01-18T07:36:39.174Z,38.26
2017-01-18T07:37:38.803Z,38.26
2017-01-18T07:38:39.219Z,38.26
2017-01-18T07:39:38.857Z,38.16
2017-01-18T07:40:38.881Z,38.16
2017-01-18T07:41:38.902Z,38.26
2017-01-18T07:42:39.328Z,38.16
2017-01-18T07:43:39.352Z,38.07
2017-01-18T07:44:39.376Z,38.26
2017-01-18T07:45:39.405Z,38.26
2017-01-18T07:46:39.429Z,38.35
2017-01-18T07:47:39.050Z,38.35
2017-01-18T07:48:39.475Z,37.97
2017-01-18T07:49:39.112Z,38.16
2017-01-18T07:50:39.136Z,38.26
2017-01-18T07:51:39.558Z,38.26
2017-01-18T07:52:39.575Z,37.97
2017-01-18T07:53:39.606Z,37.77
2017-01-18T07:54:39.240Z,37.97
2017-01-18T07:55:39.676Z,37.87
2017-01-18T07:56:39.289Z,37.97
2017-01-18T07:57:39.314Z,37.87
2017-01-18T07:58:39.339Z,37.87
2017-01-18T07:59:39.757Z,38.26
2017-01-18T08:00:39.392Z,37.77
2017-01-18T08:01:39.418Z,37.87
2017-01-18T08:02:39.833Z,38.26
2017-01-18T08:03:39.863Z,38.26
2017-01-18T08:04:39.499Z,38.26
2017-01-18T08:05:39.939Z,37.97
2017-01-18T08:06:39.544Z,37.59
2017-01-18T08:07:39.569Z,37.87
2017-01-18T08:08:39.594Z,37.97
2017-01-18T08:09:39.617Z,37.77
2017-01-18T08:10:39.648Z,38.07
2017-01-18T08:11:40.069Z,37.87
2017-01-18T08:12:40.089Z,37.59
2017-01-18T08:13:39.720Z,37.97
2017-01-18T08:14:40.138Z,37.77
2017-01-18T08:15:40.167Z,37.68
2017-01-18T08:16:39.800Z,37.87
2017-01-18T08:17:39.825Z,37.39
2017-01-18T08:18:40.245Z,37.3
2017-01-18T08:19:40.270Z,37.59
2017-01-18T08:20:39.902Z,37.77
2017-01-18T08:21:40.323Z,37.49
2017-01-18T08:22:39.951Z,37.87
2017-01-18T08:23:40.373Z,37.87
2017-01-18T08:24:40.005Z,37.77
2017-01-18T08:25:40.020Z,37.77
2017-01-18T08:26:40.080Z,37.87
2017-01-18T08:27:40.476Z,37.39
2017-01-18T08:28:40.500Z,37.49
2017-01-18T08:29:40.521Z,37.37
2017-01-18T08:30:40.550Z,37.77
2017-01-18T08:31:40.178Z,37.39
2017-01-18T08:32:40.604Z,37.49
2017-01-18T08:33:40.230Z,37.47
2017-01-18T08:34:40.253Z,37.47
2017-01-18T08:35:40.678Z,37.49
2017-01-18T08:36:40.302Z,37.66
2017-01-18T08:37:40.731Z,37.57
2017-01-18T08:38:40.360Z,37.59
2017-01-18T08:39:40.781Z,37.76
2017-01-18T08:40:40.406Z,37.27
2017-01-18T08:41:40.438Z,37.47
2017-01-18T08:42:40.463Z,37.47
2017-01-18T08:43:40.480Z,37.47
2017-01-18T08:44:40.512Z,37.47
2017-01-18T08:45:40.538Z,37.76
2017-01-18T08:46:40.562Z,37.47
2017-01-18T08:47:40.983Z,37.47
2017-01-18T08:48:41.015Z,37.66
2017-01-18T08:49:41.040Z,37.47
2017-01-18T08:50:40.660Z,37.47
2017-01-18T08:51:40.689Z,37.47
2017-01-18T08:52:40.715Z,37.47
2017-01-18T08:53:40.735Z,37.27
2017-01-18T08:54:41.161Z,37.27
2017-01-18T08:55:41.189Z,37.27
2017-01-18T08:56:40.829Z,37.66
2017-01-18T08:57:40.838Z,37.57
2017-01-18T08:58:41.264Z,37.66
2017-01-18T08:59:41.292Z,37.66
2017-01-18T09:00:41.316Z,37.47
2017-01-18T09:01:41.341Z,37.18
2017-01-18T09:02:40.966Z,37.57
2017-01-18T09:03:41.391Z,37.18
2017-01-18T09:04:41.419Z,37.18
2017-01-18T09:05:41.043Z,37.37
2017-01-18T09:06:41.072Z,37.37
2017-01-18T09:07:41.097Z,37.18
2017-01-18T09:08:41.118Z,37.27
2017-01-18T09:09:41.147Z,36.9
2017-01-18T09:10:41.568Z,36.99
2017-01-18T09:11:41.189Z,37.08
2017-01-18T09:12:41.617Z,37.18
2017-01-18T09:13:41.641Z,37.18
2017-01-18T09:14:41.666Z,37.27
2017-01-18T09:15:41.695Z,37.18
2017-01-18T09:16:41.716Z,37.2
2017-01-18T09:17:41.745Z,37.49
2017-01-18T09:18:41.377Z,36.9
2017-01-18T09:19:41.790Z,37.3
2017-01-18T09:20:41.427Z,37.27
2017-01-18T09:21:41.843Z,37.49
2017-01-18T09:22:41.872Z,37.1
2017-01-18T09:23:41.501Z,37.01
2017-01-18T09:24:41.530Z,37.01
2017-01-18T09:25:41.951Z,37.2
2017-01-18T09:26:41.589Z,37.1
2017-01-18T09:27:41.599Z,37.2
2017-01-18T09:28:42.027Z,36.82
2017-01-18T09:29:42.051Z,37.1
2017-01-18T09:30:42.094Z,36.82
2017-01-18T09:31:41.702Z,36.82
2017-01-18T09:32:42.134Z,36.91
2017-01-18T09:33:41.760Z,36.72
2017-01-18T09:34:41.778Z,36.43
2017-01-18T09:35:41.810Z,36.72
2017-01-18T09:36:41.834Z,36.62
2017-01-18T09:37:42.251Z,36.43
2017-01-18T09:38:42.279Z,36.72
2017-01-18T09:39:41.911Z,36.15
2017-01-18T09:40:42.332Z,36.24
2017-01-18T09:41:41.972Z,36.33
2017-01-18T09:42:42.383Z,36.43
2017-01-18T09:43:42.013Z,36.33
2017-01-18T09:44:42.435Z,36.43
2017-01-18T09:45:42.459Z,36.24
2017-01-18T09:46:42.484Z,36.33
2017-01-18T09:47:42.107Z,35.95
2017-01-18T09:48:42.548Z,36.15
2017-01-18T09:49:42.164Z,35.85
2017-01-18T09:50:42.189Z,36.07
2017-01-18T09:51:42.610Z,36.24
2017-01-18T09:52:42.239Z,36.24
2017-01-18T09:53:42.664Z,36.25
2017-01-18T09:54:42.689Z,36.35
2017-01-18T09:55:42.713Z,36.25
2017-01-18T09:56:42.737Z,36.16
2017-01-18T09:57:42.766Z,36.24
2017-01-18T09:58:42.788Z,36.25
2017-01-18T09:59:42.421Z,36.35
2017-01-18T10:00:42.849Z,36.16
2017-01-18T10:01:42.473Z,36.33
2017-01-18T10:02:42.498Z,36.43
2017-01-18T10:03:42.919Z,36.25
2017-01-18T10:04:42.959Z,36.25
2017-01-18T10:05:42.576Z,36.45
2017-01-18T10:06:42.601Z,36.45
2017-01-18T10:07:43.022Z,36.64
2017-01-18T10:08:42.650Z,36.53
2017-01-18T10:09:43.072Z,36.82
2017-01-18T10:10:42.704Z,37.3
2017-01-18T10:11:43.125Z,37.02
2017-01-18T10:12:42.753Z,36.93
2017-01-18T10:13:43.482Z,36.93
2017-01-18T10:14:42.807Z,37.02
2017-01-18T10:15:43.232Z,36.91
2017-01-18T10:16:42.861Z,37.49
2017-01-18T10:17:43.278Z,37.39
2017-01-18T10:18:42.910Z,37.01
2017-01-18T10:19:43.331Z,37.2
2017-01-18T10:20:42.959Z,37.1
2017-01-18T10:21:43.380Z,37.01
2017-01-18T10:22:43.040Z,37.2
2017-01-18T10:23:43.438Z,37.1
2017-01-18T10:24:43.059Z,37.49
2017-01-18T10:25:43.483Z,37.49
2017-01-18T10:26:43.512Z,37.59
2017-01-18T10:27:43.541Z,37.77
2017-01-18T10:28:43.561Z,37.87
2017-01-18T10:29:43.194Z,37.77
2017-01-18T10:30:43.216Z,37.77
2017-01-18T10:31:43.244Z,37.49
2017-01-18T10:32:43.665Z,37.77
2017-01-18T10:33:43.689Z,37.49
2017-01-18T10:34:43.719Z,37.59
2017-01-18T10:35:43.753Z,37.87
2017-01-18T10:36:43.767Z,37.68
2017-01-18T10:37:43.396Z,37.59
2017-01-18T10:38:43.821Z,37.49
2017-01-18T10:39:43.450Z,37.59
2017-01-18T10:40:43.475Z,37.97
2017-01-18T10:41:43.499Z,37.87
2017-01-18T10:42:43.928Z,37.97
2017-01-18T10:43:43.948Z,37.77
2017-01-18T10:44:43.573Z,37.97
2017-01-18T10:45:43.994Z,38.26
2017-01-18T10:46:43.623Z,37.97
2017-01-18T10:47:44.051Z,38.26
2017-01-18T10:48:43.677Z,37.77
2017-01-18T10:49:44.101Z,37.59
2017-01-18T10:50:44.130Z,38.26
2017-01-18T10:51:44.150Z,37.68
2017-01-18T10:52:43.784Z,38.16
2017-01-18T10:53:44.204Z,37.87
2017-01-18T10:54:43.832Z,37.77
2017-01-18T10:55:43.862Z,37.68
2017-01-18T10:56:43.887Z,37.59
2017-01-18T10:57:43.912Z,38.07
2017-01-18T10:58:44.331Z,37.97
2017-01-18T10:59:43.969Z,37.68
2017-01-18T11:00:44.017Z,37.3
2017-01-18T11:01:44.422Z,37.39
2017-01-18T11:02:44.039Z,37.77
2017-01-18T11:03:44.072Z,38.07
2017-01-18T11:04:44.092Z,37.77
2017-01-18T11:05:44.117Z,37.97
2017-01-18T11:06:44.146Z,37.87
2017-01-18T11:07:44.571Z,37.77
2017-01-18T11:08:44.590Z,37.59
2017-01-18T11:09:44.615Z,37.3
2017-01-18T11:10:44.244Z,37.87
2017-01-18T11:11:44.668Z,37.77
2017-01-18T11:12:44.694Z,38.07
2017-01-18T11:13:44.322Z,37.87
2017-01-18T11:14:44.743Z,37.97
2017-01-18T11:15:44.773Z,37.87
2017-01-18T11:16:44.400Z,37.68
2017-01-18T11:17:44.425Z,37.97
2017-01-18T11:18:44.451Z,37.97
2017-01-18T11:19:44.475Z,37.59
2017-01-18T11:20:44.504Z,37.87
2017-01-18T11:21:44.529Z,37.97
2017-01-18T11:22:44.949Z,37.68
2017-01-18T11:23:44.974Z,37.97
2017-01-18T11:24:45.003Z,37.77
2017-01-18T11:25:44.627Z,38.07
2017-01-18T11:26:44.652Z,37.68
2017-01-18T11:27:45.077Z,37.87
2017-01-18T11:28:44.709Z,38.07
2017-01-18T11:29:45.131Z,37.97
2017-01-18T11:30:44.760Z,37.59
2017-01-18T11:31:45.180Z,37.87
2017-01-18T11:32:45.208Z,37.59
2017-01-18T11:33:45.237Z,37.77
2017-01-18T11:34:44.862Z,37.77
2017-01-18T11:35:44.893Z,37.49
2017-01-18T11:36:44.915Z,37.49
2017-01-18T11:37:45.332Z,37.87
2017-01-18T11:38:45.357Z,37.59
2017-01-18T11:39:45.390Z,37.59
2017-01-18T11:40:45.018Z,37.59
2017-01-18T11:41:45.043Z,37.77
2017-01-18T11:42:45.068Z,37.87
2017-01-18T11:43:45.093Z,37.59
2017-01-18T11:44:45.517Z,37.3
2017-01-18T11:45:45.153Z,37.68
2017-01-18T11:46:45.571Z,37.39
2017-01-18T11:47:45.596Z,37.39
2017-01-18T11:48:45.626Z,37.2
2017-01-18T11:49:45.641Z,37.2
2017-01-18T11:50:45.665Z,37.01
2017-01-18T11:51:45.298Z,37.1
2017-01-18T11:52:45.720Z,37.49
2017-01-18T11:53:45.748Z,37.3
2017-01-18T11:54:45.773Z,37.1
2017-01-18T11:55:45.793Z,37.1
2017-01-18T11:56:45.826Z,37.2
2017-01-18T11:57:45.454Z,37.1
2017-01-18T11:58:45.876Z,37.3
2017-01-18T11:59:45.896Z,37.59
2017-01-18T12:00:45.533Z,37.59
2017-01-18T12:01:45.962Z,37.39
2017-01-18T12:02:45.974Z,37.2
2017-01-18T12:03:45.607Z,37.49
2017-01-18T12:04:46.032Z,37.59
2017-01-18T12:05:45.660Z,37.49
2017-01-18T12:06:45.685Z,37.39
2017-01-18T12:07:45.719Z,37.77
2017-01-18T12:08:46.135Z,37.59
2017-01-18T12:09:45.768Z,37.49
2017-01-18T12:10:45.785Z,37.3
2017-01-18T12:11:46.208Z,37.49
2017-01-18T12:12:46.238Z,37.39
2017-01-18T12:13:46.257Z,37.49
2017-01-18T12:14:46.286Z,37.59
2017-01-18T12:15:46.315Z,37.3
2017-01-18T12:16:46.345Z,37.59
2017-01-18T12:17:45.969Z,37.49
2017-01-18T12:18:45.997Z,37.49
2017-01-18T12:19:46.023Z,37.49
2017-01-18T12:20:46.443Z,37.68
2017-01-18T12:21:46.468Z,37.3
2017-01-18T12:22:46.496Z,37.59
2017-01-18T12:23:46.129Z,37.59
2017-01-18T12:24:46.149Z,37.49
2017-01-18T12:25:46.571Z,37.68
2017-01-18T12:26:46.597Z,37.49
2017-01-18T12:27:46.624Z,37.87
2017-01-18T12:28:46.650Z,37.68
2017-01-18T12:29:46.673Z,37.68
2017-01-18T12:30:46.699Z,37.77
2017-01-18T12:31:46.326Z,37.68
2017-01-18T12:32:46.751Z,37.77
2017-01-18T12:33:46.380Z,37.68
2017-01-18T12:34:46.801Z,37.77
2017-01-18T12:35:46.838Z,37.87
2017-01-18T12:36:46.850Z,37.77
2017-01-18T12:37:46.879Z,37.77
2017-01-18T12:38:46.507Z,37.59
2017-01-18T12:39:46.533Z,37.59
2017-01-18T12:40:46.569Z,37.59
2017-01-18T12:41:46.586Z,37.68
2017-01-18T12:42:46.608Z,37.49
2017-01-18T12:43:46.637Z,37.59
2017-01-18T12:44:46.660Z,37.68
2017-01-18T12:45:47.085Z,38.07
2017-01-18T12:46:46.713Z,37.87
2017-01-18T12:47:46.738Z,37.97
2017-01-18T12:48:47.158Z,37.87
2017-01-18T12:49:46.792Z,37.47
2017-01-18T12:50:46.812Z,37.87
2017-01-18T12:51:46.842Z,37.95
2017-01-18T12:52:47.261Z,38.07
2017-01-18T12:53:47.291Z,37.85
2017-01-18T12:54:46.943Z,37.85